sensor_id;sensor_type;location;lat;lon;timestamp;pressure;altitude;pressure_sealevel;temperature;humidity
64853;BME280;56050;55.558;-4.644;2023-06-10T00:01:43;101739.56;;;14.40;57.68
64853;BME280;56050;55.558;-4.644;2023-06-10T00:04:13;101736.88;;;14.33;57.70
64853;BME280;56050;55.558;-4.644;2023-06-10T00:06:38;101729.84;;;14.29;57.80
64853;BME280;56050;55.558;-4.644;2023-06-10T00:09:06;101728.69;;;14.23;57.80
64853;BME280;56050;55.558;-4.644;2023-06-10T00:11:35;101735.28;;;14.22;57.83
64853;BME280;56050;55.558;-4.644;2023-06-10T00:14:01;101728.69;;;14.19;57.98
64853;BME280;56050;55.558;-4.644;2023-06-10T00:16:27;101729.84;;;14.18;58.09
64853;BME280;56050;55.558;-4.644;2023-06-10T00:18:53;101727.53;;;14.13;58.13
64853;BME280;56050;55.558;-4.644;2023-06-10T00:21:21;101731.38;;;14.12;58.26
64853;BME280;56050;55.558;-4.644;2023-06-10T00:23:47;101733.31;;;14.11;58.19
64853;BME280;56050;55.558;-4.644;2023-06-10T00:26:13;101723.66;;;14.10;58.15
64853;BME280;56050;55.558;-4.644;2023-06-10T00:28:38;101722.09;;;14.09;58.38
64853;BME280;56050;55.558;-4.644;2023-06-10T00:31:03;101731.75;;;14.07;58.29
64853;BME280;56050;55.558;-4.644;2023-06-10T00:33:30;101726.34;;;14.03;58.43
64853;BME280;56050;55.558;-4.644;2023-06-10T00:35:56;101733.69;;;14.03;58.33
64853;BME280;56050;55.558;-4.644;2023-06-10T00:38:21;101737.94;;;14.04;58.59
64853;BME280;56050;55.558;-4.644;2023-06-10T00:40:47;101740.28;;;14.02;58.88
64853;BME280;56050;55.558;-4.644;2023-06-10T00:43:12;101741.41;;;13.97;58.79
64853;BME280;56050;55.558;-4.644;2023-06-10T00:45:38;101743.34;;;13.93;59.09
64853;BME280;56050;55.558;-4.644;2023-06-10T00:48:04;101749.53;;;13.90;59.22
64853;BME280;56050;55.558;-4.644;2023-06-10T00:50:30;101741.38;;;13.87;59.31
64853;BME280;56050;55.558;-4.644;2023-06-10T00:52:56;101729.38;;;13.84;59.23
64853;BME280;56050;55.558;-4.644;2023-06-10T00:55:22;101738.69;;;13.83;59.23
64853;BME280;56050;55.558;-4.644;2023-06-10T00:57:48;101735.19;;;13.83;59.43
64853;BME280;56050;55.558;-4.644;2023-06-10T01:00:15;101726.66;;;13.81;59.41
64853;BME280;56050;55.558;-4.644;2023-06-10T01:02:41;101727.84;;;13.80;59.20
64853;BME280;56050;55.558;-4.644;2023-06-10T01:05:08;101734.03;;;13.80;59.15
64853;BME280;56050;55.558;-4.644;2023-06-10T01:07:42;101730.91;;;13.78;59.32
64853;BME280;56050;55.558;-4.644;2023-06-10T01:10:57;101727.81;;;13.76;59.40
64853;BME280;56050;55.558;-4.644;2023-06-10T01:13:06;101731.72;;;13.75;59.29
64853;BME280;56050;55.558;-4.644;2023-06-10T01:15:34;101733.63;;;13.75;59.35
64853;BME280;56050;55.558;-4.644;2023-06-10T01:18:10;101740.59;;;13.72;59.46
64853;BME280;56050;55.558;-4.644;2023-06-10T01:20:40;101724.72;;;13.71;60.04
64853;BME280;56050;55.558;-4.644;2023-06-10T01:23:07;101734.78;;;13.67;59.61
64853;BME280;56050;55.558;-4.644;2023-06-10T01:25:33;101730.13;;;13.64;59.65
64853;BME280;56050;55.558;-4.644;2023-06-10T01:30:59;101720.03;;;13.57;59.39
64853;BME280;56050;55.558;-4.644;2023-06-10T01:33:35;101715.78;;;13.52;59.61
64853;BME280;56050;55.558;-4.644;2023-06-10T01:36:02;101718.06;;;13.47;59.64
64853;BME280;56050;55.558;-4.644;2023-06-10T01:38:31;101718.81;;;13.44;59.77
64853;BME280;56050;55.558;-4.644;2023-06-10T01:40:58;101715.31;;;13.40;59.56
64853;BME280;56050;55.558;-4.644;2023-06-10T01:43:23;101716.50;;;13.39;59.66
64853;BME280;56050;55.558;-4.644;2023-06-10T01:45:49;101722.66;;;13.36;59.90
64853;BME280;56050;55.558;-4.644;2023-06-10T01:48:15;101713.75;;;13.35;59.98
64853;BME280;56050;55.558;-4.644;2023-06-10T01:50:40;101712.63;;;13.36;59.99
64853;BME280;56050;55.558;-4.644;2023-06-10T01:53:05;101716.84;;;13.37;59.87
64853;BME280;56050;55.558;-4.644;2023-06-10T01:55:31;101717.63;;;13.38;59.84
64853;BME280;56050;55.558;-4.644;2023-06-10T01:57:56;101710.28;;;13.35;60.01
64853;BME280;56050;55.558;-4.644;2023-06-10T02:00:22;101715.31;;;13.33;59.89
64853;BME280;56050;55.558;-4.644;2023-06-10T02:02:47;101717.63;;;13.31;60.04
64853;BME280;56050;55.558;-4.644;2023-06-10T02:05:13;101716.84;;;13.30;59.83
64853;BME280;56050;55.558;-4.644;2023-06-10T02:07:38;101722.63;;;13.29;60.09
64853;BME280;56050;55.558;-4.644;2023-06-10T02:10:06;101717.59;;;13.27;60.03
64853;BME280;56050;55.558;-4.644;2023-06-10T02:12:31;101720.66;;;13.26;60.16
64853;BME280;56050;55.558;-4.644;2023-06-10T02:14:57;101721.84;;;13.25;60.21
64853;BME280;56050;55.558;-4.644;2023-06-10T02:17:22;101719.88;;;13.22;60.36
64853;BME280;56050;55.558;-4.644;2023-06-10T02:19:48;101727.97;;;13.18;60.33
64853;BME280;56050;55.558;-4.644;2023-06-10T02:22:20;101719.84;;;13.15;60.55
64853;BME280;56050;55.558;-4.644;2023-06-10T02:24:45;101729.91;;;13.14;60.62
64853;BME280;56050;55.558;-4.644;2023-06-10T02:27:11;101728.34;;;13.13;60.66
64853;BME280;56050;55.558;-4.644;2023-06-10T02:29:36;101732.97;;;13.13;60.52
64853;BME280;56050;55.558;-4.644;2023-06-10T02:32:02;101736.06;;;13.15;60.82
64853;BME280;56050;55.558;-4.644;2023-06-10T02:34:28;101731.44;;;13.15;60.60
64853;BME280;56050;55.558;-4.644;2023-06-10T02:36:54;101735.69;;;13.13;60.64
64853;BME280;56050;55.558;-4.644;2023-06-10T02:39:19;101738.78;;;13.11;60.60
64853;BME280;56050;55.558;-4.644;2023-06-10T02:41:44;101738.75;;;13.08;60.77
64853;BME280;56050;55.558;-4.644;2023-06-10T02:44:10;101734.06;;;13.05;60.74
64853;BME280;56050;55.558;-4.644;2023-06-10T02:46:35;101728.25;;;13.03;60.88
64853;BME280;56050;55.558;-4.644;2023-06-10T02:49:01;101733.66;;;12.99;60.83
64853;BME280;56050;55.558;-4.644;2023-06-10T02:51:27;101730.53;;;12.93;60.95
64853;BME280;56050;55.558;-4.644;2023-06-10T02:53:52;101729.75;;;12.89;60.98
64853;BME280;56050;55.558;-4.644;2023-06-10T02:56:18;101732.03;;;12.84;61.17
64853;BME280;56050;55.558;-4.644;2023-06-10T02:58:44;101732.00;;;12.80;61.09
64853;BME280;56050;55.558;-4.644;2023-06-10T03:01:09;101736.56;;;12.76;61.54
64853;BME280;56050;55.558;-4.644;2023-06-10T03:03:35;101734.25;;;12.75;61.47
64853;BME280;56050;55.558;-4.644;2023-06-10T03:06:02;101735.41;;;12.74;61.70
64853;BME280;56050;55.558;-4.644;2023-06-10T03:08:28;101743.50;;;12.74;61.57
64853;BME280;56050;55.558;-4.644;2023-06-10T03:10:53;101736.56;;;12.73;61.62
64853;BME280;56050;55.558;-4.644;2023-06-10T03:13:19;101730.38;;;12.72;61.53
64853;BME280;56050;55.558;-4.644;2023-06-10T03:15:44;101726.91;;;12.72;61.64
64853;BME280;56050;55.558;-4.644;2023-06-10T03:18:11;101721.84;;;12.70;61.71
64853;BME280;56050;55.558;-4.644;2023-06-10T03:20:37;101721.84;;;12.70;61.88
64853;BME280;56050;55.558;-4.644;2023-06-10T03:23:04;101710.28;;;12.70;61.63
64853;BME280;56050;55.558;-4.644;2023-06-10T03:25:32;101707.94;;;12.68;61.69
64853;BME280;56050;55.558;-4.644;2023-06-10T03:27:57;101710.25;;;12.66;61.74
64853;BME280;56050;55.558;-4.644;2023-06-10T03:30:23;101709.44;;;12.62;61.79
64853;BME280;56050;55.558;-4.644;2023-06-10T03:32:48;101704.81;;;12.59;61.90
64853;BME280;56050;55.558;-4.644;2023-06-10T03:35:14;101704.78;;;12.56;61.92
64853;BME280;56050;55.558;-4.644;2023-06-10T03:37:40;101702.03;;;12.52;62.08
64853;BME280;56050;55.558;-4.644;2023-06-10T03:40:06;101696.25;;;12.50;62.11
64853;BME280;56050;55.558;-4.644;2023-06-10T03:42:32;101693.91;;;12.49;62.18
64853;BME280;56050;55.558;-4.644;2023-06-10T03:44:58;101708.94;;;12.46;62.26
64853;BME280;56050;55.558;-4.644;2023-06-10T03:47:23;101702.41;;;12.47;62.24
64853;BME280;56050;55.558;-4.644;2023-06-10T03:49:48;101700.84;;;12.46;62.41
64853;BME280;56050;55.558;-4.644;2023-06-10T03:52:14;101699.28;;;12.45;62.43
64853;BME280;56050;55.558;-4.644;2023-06-10T03:54:39;101706.22;;;12.43;62.64
64853;BME280;56050;55.558;-4.644;2023-06-10T03:57:05;101703.09;;;12.41;62.70
64853;BME280;56050;55.558;-4.644;2023-06-10T03:59:31;101706.59;;;12.41;62.56
64853;BME280;56050;55.558;-4.644;2023-06-10T04:01:56;101701.97;;;12.42;62.48
64853;BME280;56050;55.558;-4.644;2023-06-10T04:04:23;101704.28;;;12.43;62.59
64853;BME280;56050;55.558;-4.644;2023-06-10T04:06:48;101698.88;;;12.43;62.47
64853;BME280;56050;55.558;-4.644;2023-06-10T04:09:14;101697.72;;;12.44;62.53
64853;BME280;56050;55.558;-4.644;2023-06-10T04:11:41;101700.06;;;12.46;62.49
64853;BME280;56050;55.558;-4.644;2023-06-10T04:14:07;101691.59;;;12.47;62.42
64853;BME280;56050;55.558;-4.644;2023-06-10T04:16:33;101697.78;;;12.51;62.39
64853;BME280;56050;55.558;-4.644;2023-06-10T04:18:59;101695.06;;;12.51;62.49
64853;BME280;56050;55.558;-4.644;2023-06-10T04:21:26;101694.72;;;12.53;62.54
64853;BME280;56050;55.558;-4.644;2023-06-10T04:23:52;101704.00;;;12.55;62.44
64853;BME280;56050;55.558;-4.644;2023-06-10T04:26:17;101692.78;;;12.57;62.49
64853;BME280;56050;55.558;-4.644;2023-06-10T04:28:43;101698.63;;;12.59;62.31
64853;BME280;56050;55.558;-4.644;2023-06-10T04:31:09;101698.22;;;12.60;62.47
64853;BME280;56050;55.558;-4.644;2023-06-10T04:33:35;101694.41;;;12.61;62.53
64853;BME280;56050;55.558;-4.644;2023-06-10T04:36:00;101700.19;;;12.63;62.49
64853;BME280;56050;55.558;-4.644;2023-06-10T04:38:26;101696.75;;;12.66;62.65
64853;BME280;56050;55.558;-4.644;2023-06-10T04:40:51;101695.22;;;12.69;62.70
64853;BME280;56050;55.558;-4.644;2023-06-10T04:43:17;101698.72;;;12.73;62.51
64853;BME280;56050;55.558;-4.644;2023-06-10T04:45:42;101698.72;;;12.76;62.42
64853;BME280;56050;55.558;-4.644;2023-06-10T04:48:11;101708.44;;;12.81;62.63
64853;BME280;56050;55.558;-4.644;2023-06-10T04:50:37;101700.72;;;12.83;62.52
64853;BME280;56050;55.558;-4.644;2023-06-10T04:53:02;101694.94;;;12.88;62.45
64853;BME280;56050;55.558;-4.644;2023-06-10T04:55:28;101684.94;;;12.92;62.50
64853;BME280;56050;55.558;-4.644;2023-06-10T04:57:53;101688.06;;;12.98;62.25
64853;BME280;56050;55.558;-4.644;2023-06-10T05:00:19;101685.75;;;13.03;62.27
64853;BME280;56050;55.558;-4.644;2023-06-10T05:02:44;101682.72;;;13.08;62.26
64853;BME280;56050;55.558;-4.644;2023-06-10T05:05:10;101674.25;;;13.13;62.31
64853;BME280;56050;55.558;-4.644;2023-06-10T05:07:36;101676.56;;;13.18;62.40
64853;BME280;56050;55.558;-4.644;2023-06-10T05:10:02;101672.72;;;13.23;62.41
64853;BME280;56050;55.558;-4.644;2023-06-10T05:12:28;101679.31;;;13.29;62.25
64853;BME280;56050;55.558;-4.644;2023-06-10T05:14:53;101676.66;;;13.36;62.17
64853;BME280;56050;55.558;-4.644;2023-06-10T05:17:19;101679.75;;;13.45;62.20
64853;BME280;56050;55.558;-4.644;2023-06-10T05:19:45;101677.84;;;13.56;61.98
64853;BME280;56050;55.558;-4.644;2023-06-10T05:22:10;101676.34;;;13.66;62.13
64853;BME280;56050;55.558;-4.644;2023-06-10T05:24:36;101673.28;;;13.74;61.90
64853;BME280;56050;55.558;-4.644;2023-06-10T05:27:01;101678.31;;;13.86;61.87
64853;BME280;56050;55.558;-4.644;2023-06-10T05:29:28;101680.28;;;13.96;61.77
64853;BME280;56050;55.558;-4.644;2023-06-10T05:31:53;101672.94;;;14.04;61.54
64853;BME280;56050;55.558;-4.644;2023-06-10T05:34:18;101668.28;;;14.15;61.58
64853;BME280;56050;55.558;-4.644;2023-06-10T05:36:44;101671.00;;;14.26;61.52
64853;BME280;56050;55.558;-4.644;2023-06-10T05:39:09;101676.84;;;14.35;61.26
64853;BME280;56050;55.558;-4.644;2023-06-10T05:41:35;101678.75;;;14.45;61.23
64853;BME280;56050;55.558;-4.644;2023-06-10T05:44:01;101677.59;;;14.56;61.06
64853;BME280;56050;55.558;-4.644;2023-06-10T05:46:26;101677.97;;;14.65;60.85
64853;BME280;56050;55.558;-4.644;2023-06-10T05:48:52;101676.78;;;14.77;60.60
64853;BME280;56050;55.558;-4.644;2023-06-10T05:51:17;101674.03;;;14.88;60.68
64853;BME280;56050;55.558;-4.644;2023-06-10T05:53:43;101671.28;;;14.98;60.58
64853;BME280;56050;55.558;-4.644;2023-06-10T05:56:08;101666.19;;;15.11;60.42
64853;BME280;56050;55.558;-4.644;2023-06-10T05:58:34;101664.63;;;15.24;60.04
64853;BME280;56050;55.558;-4.644;2023-06-10T06:00:59;101665.34;;;15.35;59.96
64853;BME280;56050;55.558;-4.644;2023-06-10T06:03:25;101673.44;;;15.46;59.82
64853;BME280;56050;55.558;-4.644;2023-06-10T06:05:50;101669.91;;;15.56;59.72
64853;BME280;56050;55.558;-4.644;2023-06-10T06:08:16;101667.13;;;15.66;59.32
64853;BME280;56050;55.558;-4.644;2023-06-10T06:10:44;101673.31;;;15.74;59.20
64853;BME280;56050;55.558;-4.644;2023-06-10T06:13:10;101673.59;;;15.83;58.88
64853;BME280;56050;55.558;-4.644;2023-06-10T06:15:35;101667.75;;;15.88;59.03
64853;BME280;56050;55.558;-4.644;2023-06-10T06:18:01;101659.94;;;15.97;58.84
64853;BME280;56050;55.558;-4.644;2023-06-10T06:20:26;101657.91;;;16.05;58.43
64853;BME280;56050;55.558;-4.644;2023-06-10T06:22:52;101657.09;;;16.11;58.20
64853;BME280;56050;55.558;-4.644;2023-06-10T06:25:17;101658.59;;;16.19;58.26
64853;BME280;56050;55.558;-4.644;2023-06-10T06:27:43;101662.78;;;16.27;58.13
64853;BME280;56050;55.558;-4.644;2023-06-10T06:30:08;101659.59;;;16.36;57.63
64853;BME280;56050;55.558;-4.644;2023-06-10T06:32:34;101659.56;;;16.43;57.80
64853;BME280;56050;55.558;-4.644;2023-06-10T06:34:59;101654.81;;;16.54;57.78
64853;BME280;56050;55.558;-4.644;2023-06-10T06:37:25;101653.50;;;16.66;57.29
64853;BME280;56050;55.558;-4.644;2023-06-10T06:39:51;101650.66;;;16.76;57.35
64853;BME280;56050;55.558;-4.644;2023-06-10T06:42:17;101650.97;;;16.85;57.17
64853;BME280;56050;55.558;-4.644;2023-06-10T06:44:43;101653.63;;;16.92;57.04
64853;BME280;56050;55.558;-4.644;2023-06-10T06:47:08;101643.41;;;17.00;56.59
64853;BME280;56050;55.558;-4.644;2023-06-10T06:49:33;101653.84;;;17.05;56.36
64853;BME280;56050;55.558;-4.644;2023-06-10T06:51:59;101651.09;;;17.09;56.53
64853;BME280;56050;55.558;-4.644;2023-06-10T06:54:24;101651.88;;;17.09;56.48
64853;BME280;56050;55.558;-4.644;2023-06-10T06:56:50;101657.63;;;17.15;56.24
64853;BME280;56050;55.558;-4.644;2023-06-10T06:59:16;101662.63;;;17.20;56.15
64853;BME280;56050;55.558;-4.644;2023-06-10T07:01:44;101659.75;;;17.30;56.02
64853;BME280;56050;55.558;-4.644;2023-06-10T07:04:10;101665.84;;;17.41;56.05
64853;BME280;56050;55.558;-4.644;2023-06-10T07:06:35;101655.97;;;17.51;56.02
64853;BME280;56050;55.558;-4.644;2023-06-10T07:09:01;101658.94;;;17.64;55.43
64853;BME280;56050;55.558;-4.644;2023-06-10T07:11:27;101662.69;;;17.73;55.36
64853;BME280;56050;55.558;-4.644;2023-06-10T07:13:52;101662.59;;;17.80;54.85
64853;BME280;56050;55.558;-4.644;2023-06-10T07:16:18;101657.03;;;17.87;54.97
64853;BME280;56050;55.558;-4.644;2023-06-10T07:18:46;101651.78;;;18.00;54.85
64853;BME280;56050;55.558;-4.644;2023-06-10T07:21:11;101658.13;;;18.16;54.53
64853;BME280;56050;55.558;-4.644;2023-06-10T07:23:36;101657.13;;;18.30;53.87
64853;BME280;56050;55.558;-4.644;2023-06-10T07:26:02;101650.00;;;18.36;53.71
64853;BME280;56050;55.558;-4.644;2023-06-10T07:28:27;101652.16;;;18.45;53.72
64853;BME280;56050;55.558;-4.644;2023-06-10T07:30:54;101648.16;;;18.53;53.28
64853;BME280;56050;55.558;-4.644;2023-06-10T07:33:19;101638.66;;;18.61;53.18
64853;BME280;56050;55.558;-4.644;2023-06-10T07:35:45;101640.34;;;18.74;53.19
64853;BME280;56050;55.558;-4.644;2023-06-10T07:38:10;101633.56;;;18.83;52.47
64853;BME280;56050;55.558;-4.644;2023-06-10T07:40:35;101641.88;;;18.95;53.10
64853;BME280;56050;55.558;-4.644;2023-06-10T07:43:01;101626.25;;;19.15;52.80
64853;BME280;56050;55.558;-4.644;2023-06-10T07:45:26;101637.13;;;19.35;52.30
64853;BME280;56050;55.558;-4.644;2023-06-10T07:47:52;101627.44;;;19.50;52.15
64853;BME280;56050;55.558;-4.644;2023-06-10T07:50:17;101623.72;;;19.60;51.95
64853;BME280;56050;55.558;-4.644;2023-06-10T07:52:43;101629.28;;;19.73;51.97
64853;BME280;56050;55.558;-4.644;2023-06-10T07:55:08;101629.00;;;19.83;51.26
64853;BME280;56050;55.558;-4.644;2023-06-10T07:57:34;101629.28;;;19.89;51.38
64853;BME280;56050;55.558;-4.644;2023-06-10T08:00:02;101627.91;;;19.97;51.02
64853;BME280;56050;55.558;-4.644;2023-06-10T08:02:29;101627.28;;;20.06;50.68
64853;BME280;56050;55.558;-4.644;2023-06-10T08:04:55;101625.50;;;20.15;51.01
64853;BME280;56050;55.558;-4.644;2023-06-10T08:07:20;101628.25;;;20.31;50.79
64853;BME280;56050;55.558;-4.644;2023-06-10T08:09:47;101629.81;;;20.45;50.51
64853;BME280;56050;55.558;-4.644;2023-06-10T08:12:13;101629.97;;;20.54;50.26
64853;BME280;56050;55.558;-4.644;2023-06-10T08:14:39;101634.19;;;20.71;50.38
64853;BME280;56050;55.558;-4.644;2023-06-10T08:17:04;101632.50;;;20.90;49.61
64853;BME280;56050;55.558;-4.644;2023-06-10T08:19:31;101628.69;;;21.00;49.00
64853;BME280;56050;55.558;-4.644;2023-06-10T08:21:56;101636.47;;;21.01;49.24
64853;BME280;56050;55.558;-4.644;2023-06-10T08:24:22;101629.47;;;21.00;48.29
64853;BME280;56050;55.558;-4.644;2023-06-10T08:26:47;101630.78;;;20.96;48.51
64853;BME280;56050;55.558;-4.644;2023-06-10T08:29:13;101626.72;;;21.00;49.06
64853;BME280;56050;55.558;-4.644;2023-06-10T08:31:44;101623.28;;;21.13;48.64
64853;BME280;56050;55.558;-4.644;2023-06-10T08:34:09;101619.53;;;21.19;48.56
64853;BME280;56050;55.558;-4.644;2023-06-10T08:36:35;101625.78;;;21.32;48.58
64853;BME280;56050;55.558;-4.644;2023-06-10T08:39:01;101623.16;;;21.41;48.54
64853;BME280;56050;55.558;-4.644;2023-06-10T08:41:28;101625.91;;;21.54;48.13
64853;BME280;56050;55.558;-4.644;2023-06-10T08:44:16;101627.66;;;21.60;47.93
64853;BME280;56050;55.558;-4.644;2023-06-10T08:46:45;101622.28;;;21.70;47.92
64853;BME280;56050;55.558;-4.644;2023-06-10T08:49:17;101621.63;;;21.78;47.98
64853;BME280;56050;55.558;-4.644;2023-06-10T08:51:42;101620.16;;;21.86;47.73
64853;BME280;56050;55.558;-4.644;2023-06-10T08:54:15;101615.56;;;21.96;46.98
64853;BME280;56050;55.558;-4.644;2023-06-10T08:56:44;101621.03;;;21.96;46.92
64853;BME280;56050;55.558;-4.644;2023-06-10T08:59:11;101612.19;;;21.92;46.77
64853;BME280;56050;55.558;-4.644;2023-06-10T09:01:38;101610.53;;;21.94;47.55
64853;BME280;56050;55.558;-4.644;2023-06-10T09:04:04;101612.81;;;22.08;47.50
64853;BME280;56050;55.558;-4.644;2023-06-10T09:06:32;101605.78;;;22.29;47.21
64853;BME280;56050;55.558;-4.644;2023-06-10T09:08:58;101604.88;;;22.45;46.88
64853;BME280;56050;55.558;-4.644;2023-06-10T09:11:24;101599.13;;;22.52;46.44
64853;BME280;56050;55.558;-4.644;2023-06-10T09:13:50;101598.81;;;22.50;46.46
64853;BME280;56050;55.558;-4.644;2023-06-10T09:16:16;101598.03;;;22.49;46.22
64853;BME280;56050;55.558;-4.644;2023-06-10T09:18:42;101598.81;;;22.50;46.36
64853;BME280;56050;55.558;-4.644;2023-06-10T09:21:08;101593.63;;;22.52;46.33
64853;BME280;56050;55.558;-4.644;2023-06-10T09:23:34;101598.88;;;22.59;46.09
64853;BME280;56050;55.558;-4.644;2023-06-10T09:26:00;101583.13;;;22.59;45.99
64853;BME280;56050;55.558;-4.644;2023-06-10T09:28:26;101593.13;;;22.66;46.16
64853;BME280;56050;55.558;-4.644;2023-06-10T09:31:05;101584.63;;;22.73;45.99
64853;BME280;56050;55.558;-4.644;2023-06-10T09:33:31;101588.66;;;22.81;45.77
64853;BME280;56050;55.558;-4.644;2023-06-10T09:35:56;101584.69;;;22.82;45.38
64853;BME280;56050;55.558;-4.644;2023-06-10T09:38:29;101572.19;;;22.81;45.46
64853;BME280;56050;55.558;-4.644;2023-06-10T09:40:55;101576.94;;;22.90;45.62
64853;BME280;56050;55.558;-4.644;2023-06-10T09:43:21;101584.16;;;22.96;45.10
64853;BME280;56050;55.558;-4.644;2023-06-10T09:45:50;101575.00;;;22.99;45.30
64853;BME280;56050;55.558;-4.644;2023-06-10T09:48:19;101575.19;;;23.05;45.19
64853;BME280;56050;55.558;-4.644;2023-06-10T09:50:45;101566.53;;;23.15;44.99
64853;BME280;56050;55.558;-4.644;2023-06-10T09:53:12;101563.34;;;23.26;45.01
64853;BME280;56050;55.558;-4.644;2023-06-10T09:55:41;101563.88;;;23.33;44.87
64853;BME280;56050;55.558;-4.644;2023-06-10T09:58:07;101557.44;;;23.36;44.65
64853;BME280;56050;55.558;-4.644;2023-06-10T10:00:33;101560.53;;;23.38;44.51
64853;BME280;56050;55.558;-4.644;2023-06-10T10:02:59;101558.09;;;23.41;44.52
64853;BME280;56050;55.558;-4.644;2023-06-10T10:05:25;101555.97;;;23.45;44.30
64853;BME280;56050;55.558;-4.644;2023-06-10T10:07:51;101555.38;;;23.50;44.02
64853;BME280;56050;55.558;-4.644;2023-06-10T10:10:19;101548.19;;;23.52;44.10
64853;BME280;56050;55.558;-4.644;2023-06-10T10:12:47;101555.38;;;23.59;44.45
64853;BME280;56050;55.558;-4.644;2023-06-10T10:15:15;101554.97;;;23.69;44.23
64853;BME280;56050;55.558;-4.644;2023-06-10T10:18:09;101554.03;;;23.81;44.07
64853;BME280;56050;55.558;-4.644;2023-06-10T10:20:39;101546.72;;;23.87;43.97
64853;BME280;56050;55.558;-4.644;2023-06-10T10:23:08;101543.97;;;23.96;43.92
64853;BME280;56050;55.558;-4.644;2023-06-10T10:25:38;101547.66;;;24.03;43.33
64853;BME280;56050;55.558;-4.644;2023-06-10T10:30:39;101538.34;;;24.18;43.50
64853;BME280;56050;55.558;-4.644;2023-06-10T10:33:09;101536.19;;;24.31;43.19
64853;BME280;56050;55.558;-4.644;2023-06-10T10:35:37;101535.25;;;24.43;43.20
64853;BME280;56050;55.558;-4.644;2023-06-10T10:38:03;101529.41;;;24.50;43.17
64853;BME280;56050;55.558;-4.644;2023-06-10T10:40:30;101528.63;;;24.59;43.08
64853;BME280;56050;55.558;-4.644;2023-06-10T10:42:58;101530.31;;;24.66;42.84
64853;BME280;56050;55.558;-4.644;2023-06-10T10:45:27;101525.66;;;24.72;42.92
64853;BME280;56050;55.558;-4.644;2023-06-10T10:47:54;101530.09;;;24.78;42.67
64853;BME280;56050;55.558;-4.644;2023-06-10T10:50:21;101518.47;;;24.83;42.46
64853;BME280;56050;55.558;-4.644;2023-06-10T10:53:04;101524.31;;;24.85;42.57
64853;BME280;56050;55.558;-4.644;2023-06-10T10:55:30;101516.59;;;24.89;42.17
64853;BME280;56050;55.558;-4.644;2023-06-10T10:58:03;101508.63;;;24.91;42.11
64853;BME280;56050;55.558;-4.644;2023-06-10T11:00:31;101511.06;;;24.98;42.09
64853;BME280;56050;55.558;-4.644;2023-06-10T11:05:32;101503.63;;;25.13;41.71
64853;BME280;56050;55.558;-4.644;2023-06-10T11:08:00;101503.47;;;25.17;41.51
64853;BME280;56050;55.558;-4.644;2023-06-10T11:13:14;101502.03;;;25.22;41.45
64853;BME280;56050;55.558;-4.644;2023-06-10T11:15:44;101495.44;;;25.28;41.38
64853;BME280;56050;55.558;-4.644;2023-06-10T11:18:25;101499.06;;;25.34;41.28
64853;BME280;56050;55.558;-4.644;2023-06-10T11:20:59;101495.19;;;25.41;40.98
64853;BME280;56050;55.558;-4.644;2023-06-10T11:28:37;101495.16;;;25.74;40.74
64853;BME280;56050;55.558;-4.644;2023-06-10T11:31:03;101491.34;;;25.86;40.71
64853;BME280;56050;55.558;-4.644;2023-06-10T11:33:28;101477.31;;;25.98;40.58
64853;BME280;56050;55.558;-4.644;2023-06-10T11:35:54;101480.44;;;26.06;40.52
64853;BME280;56050;55.558;-4.644;2023-06-10T11:38:20;101488.00;;;26.20;40.49
64853;BME280;56050;55.558;-4.644;2023-06-10T11:40:48;101473.03;;;26.26;40.40
64853;BME280;56050;55.558;-4.644;2023-06-10T11:43:16;101474.00;;;26.38;40.24
64853;BME280;56050;55.558;-4.644;2023-06-10T11:45:42;101469.41;;;26.50;40.05
64853;BME280;56050;55.558;-4.644;2023-06-10T11:48:09;101462.53;;;26.60;39.94
64853;BME280;56050;55.558;-4.644;2023-06-10T11:50:35;101460.63;;;26.66;39.61
64853;BME280;56050;55.558;-4.644;2023-06-10T11:53:01;101458.97;;;26.74;39.38
64853;BME280;56050;55.558;-4.644;2023-06-10T11:55:43;101455.38;;;26.82;39.50
64853;BME280;56050;55.558;-4.644;2023-06-10T11:58:20;101455.25;;;26.92;39.09
64853;BME280;56050;55.558;-4.644;2023-06-10T12:00:50;101460.19;;;27.02;39.09
64853;BME280;56050;55.558;-4.644;2023-06-10T12:03:16;101449.75;;;27.12;39.04
64853;BME280;56050;55.558;-4.644;2023-06-10T12:05:59;101439.50;;;27.18;38.98
64853;BME280;56050;55.558;-4.644;2023-06-10T12:08:25;101445.88;;;27.24;39.01
64853;BME280;56050;55.558;-4.644;2023-06-10T12:10:51;101442.63;;;27.25;38.76
64853;BME280;56050;55.558;-4.644;2023-06-10T12:13:17;101440.84;;;27.22;38.65
64853;BME280;56050;55.558;-4.644;2023-06-10T12:15:45;101442.25;;;27.18;38.66
64853;BME280;56050;55.558;-4.644;2023-06-10T12:18:18;101441.66;;;27.08;38.65
64853;BME280;56050;55.558;-4.644;2023-06-10T12:20:44;101440.31;;;27.04;38.66
64853;BME280;56050;55.558;-4.644;2023-06-10T12:23:10;101441.22;;;26.95;39.06
64853;BME280;56050;55.558;-4.644;2023-06-10T12:25:36;101430.81;;;26.90;39.30
64853;BME280;56050;55.558;-4.644;2023-06-10T12:28:05;101426.84;;;26.91;39.35
64853;BME280;56050;55.558;-4.644;2023-06-10T12:30:31;101424.13;;;26.97;39.21
64853;BME280;56050;55.558;-4.644;2023-06-10T12:32:57;101417.16;;;27.01;38.87
64853;BME280;56050;55.558;-4.644;2023-06-10T12:35:25;101409.41;;;27.05;39.02
64853;BME280;56050;55.558;-4.644;2023-06-10T12:37:55;101407.88;;;27.04;39.29
64853;BME280;56050;55.558;-4.644;2023-06-10T12:40:36;101409.50;;;27.11;39.25
64853;BME280;56050;55.558;-4.644;2023-06-10T12:43:02;101409.00;;;27.12;39.05
64853;BME280;56050;55.558;-4.644;2023-06-10T12:50:40;101398.00;;;27.18;39.39
64853;BME280;56050;55.558;-4.644;2023-06-10T12:53:06;101404.94;;;27.28;39.12
64853;BME280;56050;55.558;-4.644;2023-06-10T12:55:32;101388.44;;;27.39;39.19
64853;BME280;56050;55.558;-4.644;2023-06-10T12:57:59;101383.84;;;27.51;38.92
64853;BME280;56050;55.558;-4.644;2023-06-10T13:00:25;101389.69;;;27.58;38.80